JFK weather

John F Kennedy International Airport
New York, New York, United States

Public forecast

Using degrees Fahrenheit for public forecast. Weather courtesy of forecast.io.

METAR (pilot weather report)

Retrieved 2017/02/24 06:51 UTC (1 hour ago):

KJFK 240651Z 17005KT 10SM SCT090 09/08 A2993

TAF (pilot weather forecast)

Retrieved 2017/02/24 06:27 UTC (1 hour ago):

TAF KJFK 240520Z 2406/2512 18007KT P6SM BKN070 FM240900 18006KT P6SM SCT005 SCT050 FM241300 19009KT P6SM SCT035 SCT080 FM241900 18012KT P6SM SCT035 SCT250 FM250200 18008KT P6SM SCT015 SCT035 BKN250 FM250600 16005KT P6SM BKN010